sensor_id;sensor_type;location;lat;lon;timestamp;pressure;altitude;pressure_sealevel;temperature;humidity
63916;BME280;50094;51.356;-0.196;2022-08-01T00:00:54;101095.78;;;31.02;46.29
63916;BME280;50094;51.356;-0.196;2022-08-01T00:03:21;101091.10;;;31.04;46.26
63916;BME280;50094;51.356;-0.196;2022-08-01T00:05:49;101091.69;;;31.09;46.36
63916;BME280;50094;51.356;-0.196;2022-08-01T00:08:16;101089.90;;;31.19;46.18
63916;BME280;50094;51.356;-0.196;2022-08-01T00:10:44;101085.90;;;31.21;46.28
63916;BME280;50094;51.356;-0.196;2022-08-01T00:13:11;101084.70;;;31.19;46.28
63916;BME280;50094;51.356;-0.196;2022-08-01T00:15:39;101084.06;;;31.46;46.27
63916;BME280;50094;51.356;-0.196;2022-08-01T00:18:07;101080.27;;;31.05;46.33
63916;BME280;50094;51.356;-0.196;2022-08-01T00:20:34;101079.58;;;31.08;46.43
63916;BME280;50094;51.356;-0.196;2022-08-01T00:23:02;101080.18;;;31.21;45.94
63916;BME280;50094;51.356;-0.196;2022-08-01T00:25:30;101079.69;;;31.22;45.96
63916;BME280;50094;51.356;-0.196;2022-08-01T00:27:57;101081.23;;;31.21;46.02
63916;BME280;50094;51.356;-0.196;2022-08-01T00:30:25;101077.92;;;31.21;45.80
63916;BME280;50094;51.356;-0.196;2022-08-01T00:32:52;101079.01;;;31.45;45.67
63916;BME280;50094;51.356;-0.196;2022-08-01T00:35:20;101078.19;;;31.31;45.76
63916;BME280;50094;51.356;-0.196;2022-08-01T00:37:47;101079.07;;;31.30;45.68
63916;BME280;50094;51.356;-0.196;2022-08-01T00:40:15;101085.95;;;31.32;45.61
63916;BME280;50094;51.356;-0.196;2022-08-01T00:42:43;101088.67;;;31.39;45.48
63916;BME280;50094;51.356;-0.196;2022-08-01T00:45:10;101088.08;;;31.39;45.45
63916;BME280;50094;51.356;-0.196;2022-08-01T00:47:37;101080.84;;;31.48;45.38
63916;BME280;50094;51.356;-0.196;2022-08-01T00:50:05;101080.55;;;31.41;45.43
63916;BME280;50094;51.356;-0.196;2022-08-01T00:52:33;101079.43;;;31.35;45.38
63916;BME280;50094;51.356;-0.196;2022-08-01T00:55:01;101082.39;;;31.33;45.47
63916;BME280;50094;51.356;-0.196;2022-08-01T00:57:29;101086.45;;;31.42;45.45
63916;BME280;50094;51.356;-0.196;2022-08-01T00:59:57;101084.24;;;31.37;45.45
63916;BME280;50094;51.356;-0.196;2022-08-01T01:02:24;101085.51;;;31.40;45.36
63916;BME280;50094;51.356;-0.196;2022-08-01T01:04:52;101086.74;;;31.41;45.29
63916;BME280;50094;51.356;-0.196;2022-08-01T01:07:25;101085.27;;;31.58;45.08
63916;BME280;50094;51.356;-0.196;2022-08-01T01:10:00;101086.25;;;31.54;45.08
63916;BME280;50094;51.356;-0.196;2022-08-01T01:12:33;101088.98;;;31.53;45.01
63916;BME280;50094;51.356;-0.196;2022-08-01T01:15:06;101091.95;;;31.56;44.78
63916;BME280;50094;51.356;-0.196;2022-08-01T01:17:39;101094.58;;;31.65;45.07
63916;BME280;50094;51.356;-0.196;2022-08-01T01:20:12;101093.81;;;31.73;44.91
63916;BME280;50094;51.356;-0.196;2022-08-01T01:22:50;101095.85;;;31.75;44.92
63916;BME280;50094;51.356;-0.196;2022-08-01T01:25:32;101098.12;;;31.77;44.94
63916;BME280;50094;51.356;-0.196;2022-08-01T01:28:10;101094.49;;;31.59;44.92
63916;BME280;50094;51.356;-0.196;2022-08-01T01:30:42;101094.24;;;31.86;44.89
63916;BME280;50094;51.356;-0.196;2022-08-01T01:33:11;101091.23;;;31.91;44.71
63916;BME280;50094;51.356;-0.196;2022-08-01T01:35:45;101092.72;;;31.92;44.65
63916;BME280;50094;51.356;-0.196;2022-08-01T01:38:17;101095.74;;;31.67;44.71
63916;BME280;50094;51.356;-0.196;2022-08-01T01:40:45;101096.68;;;31.70;44.51
63916;BME280;50094;51.356;-0.196;2022-08-01T01:43:15;101092.96;;;31.93;44.57
63916;BME280;50094;51.356;-0.196;2022-08-01T01:45:44;101091.53;;;32.03;44.44
63916;BME280;50094;51.356;-0.196;2022-08-01T01:48:14;101093.92;;;31.98;44.49
63916;BME280;50094;51.356;-0.196;2022-08-01T01:50:46;101092.87;;;31.67;44.55
63916;BME280;50094;51.356;-0.196;2022-08-01T01:53:16;101092.99;;;31.78;44.48
63916;BME280;50094;51.356;-0.196;2022-08-01T01:55:48;101093.77;;;31.74;44.52
63916;BME280;50094;51.356;-0.196;2022-08-01T01:58:15;101092.24;;;32.03;44.51
63916;BME280;50094;51.356;-0.196;2022-08-01T02:00:45;101090.67;;;31.76;44.43
63916;BME280;50094;51.356;-0.196;2022-08-01T02:03:14;101094.97;;;32.03;44.54
63916;BME280;50094;51.356;-0.196;2022-08-01T02:05:42;101094.60;;;31.84;44.57
63916;BME280;50094;51.356;-0.196;2022-08-01T02:08:10;101095.31;;;32.04;44.55
63916;BME280;50094;51.356;-0.196;2022-08-01T02:10:39;101093.34;;;32.09;44.49
63916;BME280;50094;51.356;-0.196;2022-08-01T02:13:07;101089.29;;;32.07;44.38
63916;BME280;50094;51.356;-0.196;2022-08-01T02:15:36;101087.62;;;32.00;44.29
63916;BME280;50094;51.356;-0.196;2022-08-01T02:18:06;101083.23;;;31.99;44.39
63916;BME280;50094;51.356;-0.196;2022-08-01T02:20:36;101081.19;;;32.12;44.32
63916;BME280;50094;51.356;-0.196;2022-08-01T02:23:08;101081.03;;;31.98;44.27
63916;BME280;50094;51.356;-0.196;2022-08-01T02:25:41;101082.98;;;32.13;44.17
63916;BME280;50094;51.356;-0.196;2022-08-01T02:28:13;101086.55;;;31.91;44.22
63916;BME280;50094;51.356;-0.196;2022-08-01T02:30:46;101087.98;;;32.21;44.22
63916;BME280;50094;51.356;-0.196;2022-08-01T02:33:17;101087.26;;;31.68;44.21
63916;BME280;50094;51.356;-0.196;2022-08-01T02:35:58;101082.47;;;32.13;44.13
63916;BME280;50094;51.356;-0.196;2022-08-01T02:38:28;101079.75;;;32.16;44.02
63916;BME280;50094;51.356;-0.196;2022-08-01T02:41:02;101077.42;;;32.03;44.03
63916;BME280;50094;51.356;-0.196;2022-08-01T02:43:32;101071.35;;;32.03;43.81
63916;BME280;50094;51.356;-0.196;2022-08-01T02:46:02;101066.86;;;32.11;43.85
63916;BME280;50094;51.356;-0.196;2022-08-01T02:48:34;101063.42;;;32.25;43.92
63916;BME280;50094;51.356;-0.196;2022-08-01T02:51:03;101059.56;;;32.05;44.09
63916;BME280;50094;51.356;-0.196;2022-08-01T02:53:34;101056.46;;;32.39;43.88
63916;BME280;50094;51.356;-0.196;2022-08-01T02:56:04;101058.12;;;32.30;43.85
63916;BME280;50094;51.356;-0.196;2022-08-01T02:58:33;101057.60;;;32.35;43.81
63916;BME280;50094;51.356;-0.196;2022-08-01T03:01:03;101056.16;;;31.81;43.79
63916;BME280;50094;51.356;-0.196;2022-08-01T03:03:32;101058.74;;;32.05;43.74
63916;BME280;50094;51.356;-0.196;2022-08-01T03:06:01;101061.42;;;32.38;43.78
63916;BME280;50094;51.356;-0.196;2022-08-01T03:08:30;101064.00;;;32.14;43.67
63916;BME280;50094;51.356;-0.196;2022-08-01T03:10:59;101068.56;;;31.88;43.69
63916;BME280;50094;51.356;-0.196;2022-08-01T03:13:29;101069.76;;;32.29;43.70
63916;BME280;50094;51.356;-0.196;2022-08-01T03:15:58;101068.05;;;32.10;43.39
63916;BME280;50094;51.356;-0.196;2022-08-01T03:18:27;101068.68;;;32.13;43.41
63916;BME280;50094;51.356;-0.196;2022-08-01T03:20:56;101065.65;;;32.40;43.38
63916;BME280;50094;51.356;-0.196;2022-08-01T03:23:26;101061.28;;;32.26;43.37
63916;BME280;50094;51.356;-0.196;2022-08-01T03:25:55;101061.73;;;32.41;43.19
63916;BME280;50094;51.356;-0.196;2022-08-01T03:28:25;101061.43;;;32.42;43.16
63916;BME280;50094;51.356;-0.196;2022-08-01T03:30:52;101066.88;;;32.08;43.26
63916;BME280;50094;51.356;-0.196;2022-08-01T03:33:20;101068.49;;;32.29;43.34
63916;BME280;50094;51.356;-0.196;2022-08-01T03:35:49;101070.43;;;32.36;43.25
63916;BME280;50094;51.356;-0.196;2022-08-01T03:38:23;101070.58;;;32.36;43.19
63916;BME280;50094;51.356;-0.196;2022-08-01T03:40:53;101069.47;;;32.34;43.15
63916;BME280;50094;51.356;-0.196;2022-08-01T03:43:26;101071.51;;;32.18;43.02
63916;BME280;50094;51.356;-0.196;2022-08-01T03:46:02;101074.22;;;32.40;43.03
63916;BME280;50094;51.356;-0.196;2022-08-01T03:48:32;101075.93;;;32.48;42.81
63916;BME280;50094;51.356;-0.196;2022-08-01T03:51:02;101076.14;;;32.08;43.00
63916;BME280;50094;51.356;-0.196;2022-08-01T03:53:32;101074.54;;;32.34;42.96
63916;BME280;50094;51.356;-0.196;2022-08-01T03:56:02;101076.76;;;32.27;42.87
63916;BME280;50094;51.356;-0.196;2022-08-01T03:58:31;101078.29;;;32.20;42.73
63916;BME280;50094;51.356;-0.196;2022-08-01T04:00:59;101082.30;;;32.32;42.61
63916;BME280;50094;51.356;-0.196;2022-08-01T04:03:27;101082.28;;;32.33;42.64
63916;BME280;50094;51.356;-0.196;2022-08-01T04:05:55;101083.60;;;32.28;42.40
63916;BME280;50094;51.356;-0.196;2022-08-01T04:08:22;101085.92;;;32.37;42.71
63916;BME280;50094;51.356;-0.196;2022-08-01T04:10:50;101081.31;;;32.21;42.62
63916;BME280;50094;51.356;-0.196;2022-08-01T04:13:17;101081.16;;;32.42;42.50
63916;BME280;50094;51.356;-0.196;2022-08-01T04:15:45;101079.04;;;32.45;42.53
63916;BME280;50094;51.356;-0.196;2022-08-01T04:18:12;101076.82;;;32.38;42.57
63916;BME280;50094;51.356;-0.196;2022-08-01T04:20:39;101074.67;;;32.31;42.64
63916;BME280;50094;51.356;-0.196;2022-08-01T04:23:07;101071.98;;;32.31;42.26
63916;BME280;50094;51.356;-0.196;2022-08-01T04:25:37;101074.16;;;32.25;42.39
63916;BME280;50094;51.356;-0.196;2022-08-01T04:28:06;101074.94;;;32.32;42.20
63916;BME280;50094;51.356;-0.196;2022-08-01T04:30:37;101073.10;;;32.18;42.11
63916;BME280;50094;51.356;-0.196;2022-08-01T04:33:08;101064.00;;;32.53;42.23
63916;BME280;50094;51.356;-0.196;2022-08-01T04:35:37;101059.73;;;32.31;42.09
63916;BME280;50094;51.356;-0.196;2022-08-01T04:38:05;101060.65;;;32.46;42.08
63916;BME280;50094;51.356;-0.196;2022-08-01T04:40:34;101065.65;;;32.13;42.27
63916;BME280;50094;51.356;-0.196;2022-08-01T04:43:03;101066.66;;;32.09;41.99
63916;BME280;50094;51.356;-0.196;2022-08-01T04:45:30;101064.96;;;32.35;41.85
63916;BME280;50094;51.356;-0.196;2022-08-01T04:47:58;101066.67;;;32.55;41.73
63916;BME280;50094;51.356;-0.196;2022-08-01T04:50:27;101073.25;;;32.38;41.38
63916;BME280;50094;51.356;-0.196;2022-08-01T04:52:55;101079.51;;;32.37;41.56
63916;BME280;50094;51.356;-0.196;2022-08-01T04:55:22;101074.36;;;32.40;41.64
63916;BME280;50094;51.356;-0.196;2022-08-01T04:57:49;101075.63;;;32.49;41.77
63916;BME280;50094;51.356;-0.196;2022-08-01T05:00:17;101079.49;;;32.40;41.89
63916;BME280;50094;51.356;-0.196;2022-08-01T05:02:45;101084.86;;;32.64;41.66
63916;BME280;50094;51.356;-0.196;2022-08-01T05:05:12;101091.64;;;32.44;41.52
63916;BME280;50094;51.356;-0.196;2022-08-01T05:07:40;101096.55;;;31.98;41.46
63916;BME280;50094;51.356;-0.196;2022-08-01T05:10:08;101101.70;;;32.20;41.34
63916;BME280;50094;51.356;-0.196;2022-08-01T05:12:36;101100.59;;;32.23;41.37
63916;BME280;50094;51.356;-0.196;2022-08-01T05:15:04;101103.39;;;32.25;41.16
63916;BME280;50094;51.356;-0.196;2022-08-01T05:17:32;101107.66;;;32.52;41.45
63916;BME280;50094;51.356;-0.196;2022-08-01T05:19:59;101109.24;;;32.23;41.27
63916;BME280;50094;51.356;-0.196;2022-08-01T05:22:26;101109.77;;;32.74;40.88
63916;BME280;50094;51.356;-0.196;2022-08-01T05:24:54;101111.78;;;32.30;41.03
63916;BME280;50094;51.356;-0.196;2022-08-01T05:27:21;101108.59;;;32.60;41.12
63916;BME280;50094;51.356;-0.196;2022-08-01T05:29:49;101109.45;;;32.57;41.22
63916;BME280;50094;51.356;-0.196;2022-08-01T05:32:16;101108.24;;;32.53;41.08
63916;BME280;50094;51.356;-0.196;2022-08-01T05:34:44;101109.69;;;32.28;41.17
63916;BME280;50094;51.356;-0.196;2022-08-01T05:37:11;101109.73;;;32.65;41.09
63916;BME280;50094;51.356;-0.196;2022-08-01T05:39:39;101107.33;;;32.56;41.08
63916;BME280;50094;51.356;-0.196;2022-08-01T05:42:06;101110.48;;;32.31;40.98
63916;BME280;50094;51.356;-0.196;2022-08-01T05:44:34;101107.77;;;32.57;41.05
63916;BME280;50094;51.356;-0.196;2022-08-01T05:47:01;101108.41;;;32.58;40.66
63916;BME280;50094;51.356;-0.196;2022-08-01T05:49:29;101106.89;;;32.63;40.58
63916;BME280;50094;51.356;-0.196;2022-08-01T05:51:56;101103.09;;;32.38;40.41
63916;BME280;50094;51.356;-0.196;2022-08-01T05:54:24;101103.07;;;32.90;40.76
63916;BME280;50094;51.356;-0.196;2022-08-01T05:56:51;101101.74;;;32.61;40.78
63916;BME280;50094;51.356;-0.196;2022-08-01T05:59:19;101105.65;;;32.67;40.84
63916;BME280;50094;51.356;-0.196;2022-08-01T06:01:46;101109.50;;;32.42;40.81
63916;BME280;50094;51.356;-0.196;2022-08-01T06:04:13;101106.76;;;32.39;40.69
63916;BME280;50094;51.356;-0.196;2022-08-01T06:06:41;101109.94;;;32.42;40.10
63916;BME280;50094;51.356;-0.196;2022-08-01T06:09:09;101111.17;;;32.42;40.64
63916;BME280;50094;51.356;-0.196;2022-08-01T06:11:36;101105.95;;;32.47;40.72
63916;BME280;50094;51.356;-0.196;2022-08-01T06:14:04;101102.59;;;32.58;40.69
63916;BME280;50094;51.356;-0.196;2022-08-01T06:16:32;101108.41;;;32.77;40.65
63916;BME280;50094;51.356;-0.196;2022-08-01T06:18:59;101113.07;;;32.54;40.49
63916;BME280;50094;51.356;-0.196;2022-08-01T06:21:26;101115.32;;;32.80;40.61
63916;BME280;50094;51.356;-0.196;2022-08-01T06:23:54;101116.62;;;32.72;40.40
63916;BME280;50094;51.356;-0.196;2022-08-01T06:26:22;101118.74;;;32.49;40.38
63916;BME280;50094;51.356;-0.196;2022-08-01T06:28:49;101116.09;;;32.50;39.76
63916;BME280;50094;51.356;-0.196;2022-08-01T06:31:17;101116.99;;;32.47;39.80
63916;BME280;50094;51.356;-0.196;2022-08-01T06:33:44;101116.15;;;32.52;39.90
63916;BME280;50094;51.356;-0.196;2022-08-01T06:36:11;101115.05;;;32.83;39.82
63916;BME280;50094;51.356;-0.196;2022-08-01T06:38:39;101116.85;;;32.76;39.88
63916;BME280;50094;51.356;-0.196;2022-08-01T06:41:06;101113.48;;;32.53;39.87
63916;BME280;50094;51.356;-0.196;2022-08-01T06:43:34;101109.73;;;32.56;39.95
63916;BME280;50094;51.356;-0.196;2022-08-01T06:46:01;101106.50;;;32.59;39.75
63916;BME280;50094;51.356;-0.196;2022-08-01T06:48:28;101111.80;;;32.57;39.72
63916;BME280;50094;51.356;-0.196;2022-08-01T06:50:56;101117.15;;;32.62;39.41
63916;BME280;50094;51.356;-0.196;2022-08-01T06:53:23;101122.43;;;32.85;39.41
63916;BME280;50094;51.356;-0.196;2022-08-01T06:55:51;101125.09;;;32.67;39.59
63916;BME280;50094;51.356;-0.196;2022-08-01T06:58:19;101130.03;;;32.68;39.49
63916;BME280;50094;51.356;-0.196;2022-08-01T07:00:46;101131.02;;;32.68;38.96
63916;BME280;50094;51.356;-0.196;2022-08-01T07:03:14;101129.00;;;32.75;39.32
63916;BME280;50094;51.356;-0.196;2022-08-01T07:05:41;101128.50;;;32.75;39.21
63916;BME280;50094;51.356;-0.196;2022-08-01T07:08:09;101127.15;;;32.76;39.44
63916;BME280;50094;51.356;-0.196;2022-08-01T07:10:36;101126.95;;;32.70;39.45
63916;BME280;50094;51.356;-0.196;2022-08-01T07:13:04;101126.71;;;32.97;39.35
63916;BME280;50094;51.356;-0.196;2022-08-01T07:15:31;101127.71;;;32.99;39.21
63916;BME280;50094;51.356;-0.196;2022-08-01T07:17:59;101127.44;;;32.75;39.12
63916;BME280;50094;51.356;-0.196;2022-08-01T07:20:26;101131.14;;;32.77;39.34
63916;BME280;50094;51.356;-0.196;2022-08-01T07:22:54;101132.03;;;32.79;39.28
63916;BME280;50094;51.356;-0.196;2022-08-01T07:25:21;101132.19;;;32.81;39.25
63916;BME280;50094;51.356;-0.196;2022-08-01T07:27:49;101133.13;;;32.87;39.22
63916;BME280;50094;51.356;-0.196;2022-08-01T07:30:16;101130.88;;;33.20;39.30
63916;BME280;50094;51.356;-0.196;2022-08-01T07:32:44;101132.96;;;32.72;39.58
63916;BME280;50094;51.356;-0.196;2022-08-01T07:35:11;101131.58;;;32.55;39.30
63916;BME280;50094;51.356;-0.196;2022-08-01T07:37:39;101137.66;;;32.65;39.42
63916;BME280;50094;51.356;-0.196;2022-08-01T07:40:07;101140.18;;;32.99;39.80
63916;BME280;50094;51.356;-0.196;2022-08-01T07:42:35;101141.21;;;32.95;39.76
63916;BME280;50094;51.356;-0.196;2022-08-01T07:45:03;101144.74;;;32.66;39.97
63916;BME280;50094;51.356;-0.196;2022-08-01T07:47:31;101146.77;;;33.06;39.76
63916;BME280;50094;51.356;-0.196;2022-08-01T07:50:00;101145.73;;;33.17;40.15
63916;BME280;50094;51.356;-0.196;2022-08-01T07:52:28;101143.06;;;33.05;40.41
63916;BME280;50094;51.356;-0.196;2022-08-01T07:54:55;101142.96;;;33.30;40.17
63916;BME280;50094;51.356;-0.196;2022-08-01T07:57:23;101146.18;;;33.13;36.11
63916;BME280;50094;51.356;-0.196;2022-08-01T07:59:51;101152.21;;;32.79;39.35
63916;BME280;50094;51.356;-0.196;2022-08-01T08:02:18;101160.08;;;33.03;39.35
63916;BME280;50094;51.356;-0.196;2022-08-01T08:04:45;101164.61;;;33.03;39.51
63916;BME280;50094;51.356;-0.196;2022-08-01T08:07:13;101165.57;;;33.25;39.08
63916;BME280;50094;51.356;-0.196;2022-08-01T08:09:40;101166.48;;;33.31;38.89
63916;BME280;50094;51.356;-0.196;2022-08-01T08:12:08;101163.31;;;32.55;38.46
63916;BME280;50094;51.356;-0.196;2022-08-01T08:14:35;101161.39;;;33.28;39.04
63916;BME280;50094;51.356;-0.196;2022-08-01T08:17:03;101162.32;;;33.02;39.08
63916;BME280;50094;51.356;-0.196;2022-08-01T08:19:31;101165.15;;;33.09;38.59
63916;BME280;50094;51.356;-0.196;2022-08-01T08:21:59;101161.87;;;33.13;38.26
63916;BME280;50094;51.356;-0.196;2022-08-01T08:24:26;101159.42;;;33.55;38.42
63916;BME280;50094;51.356;-0.196;2022-08-01T08:26:56;101158.88;;;33.66;38.47
63916;BME280;50094;51.356;-0.196;2022-08-01T08:29:24;101159.02;;;33.36;38.27
63916;BME280;50094;51.356;-0.196;2022-08-01T08:31:52;101159.12;;;33.46;38.14
63916;BME280;50094;51.356;-0.196;2022-08-01T08:34:20;101158.07;;;33.43;37.62
63916;BME280;50094;51.356;-0.196;2022-08-01T08:36:48;101158.73;;;33.90;37.75
63916;BME280;50094;51.356;-0.196;2022-08-01T08:39:15;101158.72;;;33.43;37.61
63916;BME280;50094;51.356;-0.196;2022-08-01T08:41:43;101158.65;;;33.93;37.40
63916;BME280;50094;51.356;-0.196;2022-08-01T08:44:11;101158.95;;;33.97;37.31
63916;BME280;50094;51.356;-0.196;2022-08-01T08:46:41;101159.32;;;33.77;37.04
63916;BME280;50094;51.356;-0.196;2022-08-01T08:49:11;101161.60;;;33.85;36.69
63916;BME280;50094;51.356;-0.196;2022-08-01T08:51:39;101160.60;;;34.18;36.66
63916;BME280;50094;51.356;-0.196;2022-08-01T08:54:11;101161.25;;;34.33;36.65
63916;BME280;50094;51.356;-0.196;2022-08-01T08:56:38;101161.17;;;34.40;36.79
63916;BME280;50094;51.356;-0.196;2022-08-01T08:59:06;101156.21;;;34.07;36.63
63916;BME280;50094;51.356;-0.196;2022-08-01T09:01:33;101156.24;;;34.31;36.46
63916;BME280;50094;51.356;-0.196;2022-08-01T09:04:01;101154.81;;;33.88;36.15
63916;BME280;50094;51.356;-0.196;2022-08-01T09:06:29;101151.71;;;34.13;35.89
63916;BME280;50094;51.356;-0.196;2022-08-01T09:08:57;101150.54;;;34.12;35.51
63916;BME280;50094;51.356;-0.196;2022-08-01T09:11:24;101148.89;;;34.16;35.67
63916;BME280;50094;51.356;-0.196;2022-08-01T09:14:10;101149.84;;;34.23;35.38
63916;BME280;50094;51.356;-0.196;2022-08-01T09:16:42;101145.98;;;34.11;35.17
63916;BME280;50094;51.356;-0.196;2022-08-01T09:19:11;101148.05;;;34.18;35.29
63916;BME280;50094;51.356;-0.196;2022-08-01T09:21:40;101151.83;;;34.24;35.11
63916;BME280;50094;51.356;-0.196;2022-08-01T09:24:22;101156.35;;;34.25;34.98
63916;BME280;50094;51.356;-0.196;2022-08-01T09:26:49;101158.28;;;34.07;34.86
63916;BME280;50094;51.356;-0.196;2022-08-01T09:29:19;101155.67;;;34.07;34.80
63916;BME280;50094;51.356;-0.196;2022-08-01T09:31:47;101155.45;;;34.13;34.78
63916;BME280;50094;51.356;-0.196;2022-08-01T09:34:15;101149.55;;;33.87;34.52
63916;BME280;50094;51.356;-0.196;2022-08-01T09:36:47;101151.57;;;34.03;34.42
63916;BME280;50094;51.356;-0.196;2022-08-01T09:39:15;101148.41;;;33.98;34.69
63916;BME280;50094;51.356;-0.196;2022-08-01T09:41:42;101147.04;;;34.51;34.91
63916;BME280;50094;51.356;-0.196;2022-08-01T09:44:10;101149.21;;;34.50;35.17
63916;BME280;50094;51.356;-0.196;2022-08-01T09:46:49;101150.88;;;34.72;35.09
63916;BME280;50094;51.356;-0.196;2022-08-01T09:49:28;101150.00;;;34.51;34.77
63916;BME280;50094;51.356;-0.196;2022-08-01T09:51:57;101154.16;;;34.80;34.89
63916;BME280;50094;51.356;-0.196;2022-08-01T09:54:29;101162.12;;;34.91;34.95
63916;BME280;50094;51.356;-0.196;2022-08-01T09:57:15;101163.51;;;35.22;35.01
63916;BME280;50094;51.356;-0.196;2022-08-01T09:59:46;101161.03;;;34.75;34.96
63916;BME280;50094;51.356;-0.196;2022-08-01T10:02:25;101158.14;;;35.15;34.82
63916;BME280;50094;51.356;-0.196;2022-08-01T10:04:53;101156.13;;;34.91;34.68
63916;BME280;50094;51.356;-0.196;2022-08-01T10:07:21;101154.81;;;34.92;34.00
63916;BME280;50094;51.356;-0.196;2022-08-01T10:09:48;101155.38;;;34.69;34.09
63916;BME280;50094;51.356;-0.196;2022-08-01T10:12:20;101152.89;;;35.52;34.15
63916;BME280;50094;51.356;-0.196;2022-08-01T10:14:49;101155.43;;;35.12;34.18
63916;BME280;50094;51.356;-0.196;2022-08-01T10:17:19;101159.30;;;34.85;34.13
63916;BME280;50094;51.356;-0.196;2022-08-01T10:19:46;101160.22;;;35.01;33.88
63916;BME280;50094;51.356;-0.196;2022-08-01T10:22:16;101151.50;;;34.95;33.70
63916;BME280;50094;51.356;-0.196;2022-08-01T10:24:46;101158.14;;;34.70;33.66
63916;BME280;50094;51.356;-0.196;2022-08-01T10:27:16;101155.70;;;34.89;33.43
63916;BME280;50094;51.356;-0.196;2022-08-01T10:29:47;101153.98;;;34.90;33.47
63916;BME280;50094;51.356;-0.196;2022-08-01T10:32:17;101154.74;;;35.05;33.66
63916;BME280;50094;51.356;-0.196;2022-08-01T10:34:45;101153.27;;;35.06;33.54
63916;BME280;50094;51.356;-0.196;2022-08-01T10:37:13;101152.63;;;34.67;33.43
63916;BME280;50094;51.356;-0.196;2022-08-01T10:39:41;101152.08;;;34.98;33.56
63916;BME280;50094;51.356;-0.196;2022-08-01T10:42:11;101155.23;;;34.69;33.19
63916;BME280;50094;51.356;-0.196;2022-08-01T10:44:39;101159.67;;;34.99;33.38
63916;BME280;50094;51.356;-0.196;2022-08-01T10:47:11;101160.09;;;35.24;33.57
63916;BME280;50094;51.356;-0.196;2022-08-01T10:49:43;101153.88;;;35.57;33.61
63916;BME280;50094;51.356;-0.196;2022-08-01T10:52:16;101152.05;;;35.71;33.65
63916;BME280;50094;51.356;-0.196;2022-08-01T10:54:43;101149.86;;;35.42;33.47
63916;BME280;50094;51.356;-0.196;2022-08-01T10:57:10;101149.18;;;35.46;33.42
63916;BME280;50094;51.356;-0.196;2022-08-01T10:59:49;101147.17;;;35.14;33.36
63916;BME280;50094;51.356;-0.196;2022-08-01T11:02:27;101139.36;;;35.03;33.13
63916;BME280;50094;51.356;-0.196;2022-08-01T11:04:56;101137.02;;;35.28;33.04
63916;BME280;50094;51.356;-0.196;2022-08-01T11:07:40;101134.17;;;35.68;33.04
63916;BME280;50094;51.356;-0.196;2022-08-01T11:10:16;101138.99;;;35.38;33.10
63916;BME280;50094;51.356;-0.196;2022-08-01T11:12:46;101133.04;;;35.27;33.17
63916;BME280;50094;51.356;-0.196;2022-08-01T11:15:29;101133.84;;;35.54;32.94
63916;BME280;50094;51.356;-0.196;2022-08-01T11:17:58;101130.47;;;35.31;33.02
63916;BME280;50094;51.356;-0.196;2022-08-01T11:20:27;101124.88;;;35.69;32.48
63916;BME280;50094;51.356;-0.196;2022-08-01T11:23:16;101123.60;;;35.62;32.30
63916;BME280;50094;51.356;-0.196;2022-08-01T11:26:17;101124.53;;;35.38;32.49
63916;BME280;50094;51.356;-0.196;2022-08-01T11:28:46;101122.20;;;35.43;32.75
63916;BME280;50094;51.356;-0.196;2022-08-01T11:31:36;101119.78;;;35.61;32.06
63916;BME280;50094;51.356;-0.196;2022-08-01T11:34:05;101123.99;;;35.31;32.07
63916;BME280;50094;51.356;-0.196;2022-08-01T11:36:33;101119.16;;;35.33;32.34
63916;BME280;50094;51.356;-0.196;2022-08-01T11:39:17;101120.73;;;35.08;32.34
63916;BME280;50094;51.356;-0.196;2022-08-01T11:41:47;101125.21;;;34.96;32.30
63916;BME280;50094;51.356;-0.196;2022-08-01T11:44:18;101121.27;;;34.98;32.33
63916;BME280;50094;51.356;-0.196;2022-08-01T11:46:49;101122.63;;;34.40;32.41
63916;BME280;50094;51.356;-0.196;2022-08-01T11:49:44;101123.73;;;34.38;32.52
63916;BME280;50094;51.356;-0.196;2022-08-01T11:52:14;101122.30;;;34.28;32.67
63916;BME280;50094;51.356;-0.196;2022-08-01T11:54:43;101117.97;;;34.13;32.79
63916;BME280;50094;51.356;-0.196;2022-08-01T11:57:13;101110.13;;;33.96;32.99
63916;BME280;50094;51.356;-0.196;2022-08-01T11:59:43;101109.51;;;33.92;32.76
63916;BME280;50094;51.356;-0.196;2022-08-01T12:02:19;101110.77;;;33.92;32.50
63916;BME280;50094;51.356;-0.196;2022-08-01T12:04:51;101109.36;;;33.71;33.01
63916;BME280;50094;51.356;-0.196;2022-08-01T12:07:20;101106.27;;;33.49;32.86
63916;BME280;50094;51.356;-0.196;2022-08-01T12:09:48;101106.18;;;33.81;33.12
63916;BME280;50094;51.356;-0.196;2022-08-01T12:12:23;101102.30;;;33.67;33.10
63916;BME280;50094;51.356;-0.196;2022-08-01T12:14:53;101102.91;;;33.62;33.32
63916;BME280;50094;51.356;-0.196;2022-08-01T12:17:27;101107.64;;;33.18;33.35
63916;BME280;50094;51.356;-0.196;2022-08-01T12:19:55;101108.56;;;33.56;33.26
63916;BME280;50094;51.356;-0.196;2022-08-01T12:22:23;101110.79;;;33.36;32.91
63916;BME280;50094;51.356;-0.196;2022-08-01T12:24:52;101111.31;;;32.83;33.07
63916;BME280;50094;51.356;-0.196;2022-08-01T12:27:27;101109.03;;;33.16;33.06
63916;BME280;50094;51.356;-0.196;2022-08-01T12:29:56;101103.71;;;33.17;33.20
63916;BME280;50094;51.356;-0.196;2022-08-01T12:32:27;101101.05;;;33.25;33.29
63916;BME280;50094;51.356;-0.196;2022-08-01T12:34:54;101098.45;;;33.02;33.25
63916;BME280;50094;51.356;-0.196;2022-08-01T12:37:23;101099.02;;;33.06;33.19
63916;BME280;50094;51.356;-0.196;2022-08-01T12:39:50;101096.70;;;33.20;33.16
63916;BME280;50094;51.356;-0.196;2022-08-01T12:42:17;101090.06;;;32.79;33.04
63916;BME280;50094;51.356;-0.196;2022-08-01T12:44:47;101089.29;;;33.14;33.13
63916;BME280;50094;51.356;-0.196;2022-08-01T12:47:15;101092.93;;;33.11;33.12
63916;BME280;50094;51.356;-0.196;2022-08-01T12:49:43;101088.08;;;32.83;33.05
63916;BME280;50094;51.356;-0.196;2022-08-01T12:52:12;101088.88;;;32.90;32.70